Time;durP1;ratioP1;P1;durP2;ratioP2;P2;SDS_P1;SDS_P2;PMS_P1;PMS_P2;Temp;Humidity;BMP_temperature;BMP_pressure;BME280_temperature;BME280_humidity;BME280_pressure;Samples;Min_cycle;Max_cycle;Signal;HPM_P1;HPM_P2
2024/02/18 00:02:35;;;;;;;22.33;9.10;;;;;;;;;;10566973;27;20484;-75
2024/02/18 00:07:37;;;;;;;26.75;9.48;;;;;;;;;;10567183;27;20041;-74
2024/02/18 00:12:40;;;;;;;22.40;8.57;;;;;;;;;;10567361;27;20034;-74
2024/02/18 00:17:44;;;;;;;27.92;9.80;;;;;;;;;;10558162;28;20223;-74
2024/02/18 00:22:47;;;;;;;32.17;10.95;;;;;;;;;;10569269;27;20054;-74
2024/02/18 00:27:49;;;;;;;31.30;11.13;;;;;;;;;;10545194;27;20028;-74
2024/02/18 00:32:54;;;;;;;26.77;10.45;;;;;;;;;;10557779;27;20154;-74
2024/02/18 00:37:56;;;;;;;;;;;;;;;;;;10565758;27;20583;-74
2024/02/18 00:43:00;;;;;;;27.48;10.63;;;;;;;;;;10566225;27;20000;-74
2024/02/18 00:48:04;;;;;;;27.95;11.15;;;;;;;;;;10568345;27;20035;-75
2024/02/18 00:53:07;;;;;;;26.23;9.50;;;;;;;;;;10564263;27;20032;-75
2024/02/18 00:58:10;;;;;;;27.83;9.95;;;;;;;;;;10561146;27;20040;-75
2024/02/18 01:03:15;;;;;;;27.50;10.38;;;;;;;;;;10573960;27;20088;-74
2024/02/18 01:08:17;;;;;;;24.38;10.05;;;;;;;;;;10565659;27;20031;-75
2024/02/18 01:13:20;;;;;;;29.90;11.13;;;;;;;;;;10559060;27;20067;-74
2024/02/18 01:18:24;;;;;;;31.98;10.88;;;;;;;;;;10559276;27;20736;-75
2024/02/18 01:23:26;;;;;;;;;;;;;;;;;;10555410;27;20055;-75
2024/02/18 01:28:29;;;;;;;28.65;10.25;;;;;;;;;;10569148;27;19955;-74
2024/02/18 01:33:33;;;;;;;29.60;10.68;;;;;;;;;;10556356;27;20521;-75
2024/02/18 01:38:35;;;;;;;23.75;9.00;;;;;;;;;;10545424;28;20051;-74
2024/02/18 01:43:38;;;;;;;30.33;11.60;;;;;;;;;;10558368;28;20513;-74
2024/02/18 01:48:42;;;;;;;24.58;10.57;;;;;;;;;;10560854;27;20043;-75
2024/02/18 01:53:45;;;;;;;32.53;12.00;;;;;;;;;;10557423;28;20402;-75
2024/02/18 01:58:48;;;;;;;34.40;11.20;;;;;;;;;;10564199;28;20036;-77
2024/02/18 02:03:52;;;;;;;25.90;10.10;;;;;;;;;;10563585;28;20032;-76
2024/02/18 02:08:55;;;;;;;29.35;10.60;;;;;;;;;;10560485;28;20035;-75
2024/02/18 02:13:58;;;;;;;28.98;10.23;;;;;;;;;;10552989;28;20039;-75
2024/02/18 02:19:02;;;;;;;25.27;10.52;;;;;;;;;;10567555;28;20036;-75
2024/02/18 02:24:05;;;;;;;26.95;10.43;;;;;;;;;;10559853;28;20577;-74
2024/02/18 02:29:12;;;;;;;27.45;9.95;;;;;;;;;;10551648;28;20068;-75
2024/02/18 02:34:15;;;;;;;27.45;10.60;;;;;;;;;;10567194;27;20330;-75
2024/02/18 02:39:18;;;;;;;29.30;11.00;;;;;;;;;;10572554;27;20062;-75
2024/02/18 02:44:22;;;;;;;27.58;10.90;;;;;;;;;;10580204;27;20376;-75
2024/02/18 02:49:24;;;;;;;25.50;10.40;;;;;;;;;;10565060;27;20123;-75
2024/02/18 02:54:27;;;;;;;24.35;9.55;;;;;;;;;;10574962;27;20093;-74
2024/02/18 02:59:31;;;;;;;25.50;10.00;;;;;;;;;;10571042;27;20048;-75
2024/02/18 03:04:34;;;;;;;29.33;10.45;;;;;;;;;;10563658;27;20070;-75
2024/02/18 03:09:37;;;;;;;27.38;10.65;;;;;;;;;;10568088;27;20109;-75
2024/02/18 03:14:42;;;;;;;23.08;8.02;;;;;;;;;;10561784;27;20055;-75
2024/02/18 03:19:45;;;;;;;23.45;8.30;;;;;;;;;;10581817;27;20499;-75
2024/02/18 03:24:49;;;;;;;26.67;10.55;;;;;;;;;;10569248;27;20050;-75
2024/02/18 03:29:54;;;;;;;23.57;9.63;;;;;;;;;;10564851;28;20043;-74
2024/02/18 03:34:56;;;;;;;25.33;9.20;;;;;;;;;;10568166;27;20067;-75
2024/02/18 03:39:59;;;;;;;23.27;8.85;;;;;;;;;;10572667;27;20425;-75
2024/02/18 03:45:03;;;;;;;28.25;9.98;;;;;;;;;;10574961;27;20100;-76
2024/02/18 03:50:06;;;;;;;27.52;10.32;;;;;;;;;;10563309;27;20040;-74
2024/02/18 03:55:10;;;;;;;32.60;12.10;;;;;;;;;;10565336;27;20072;-75
2024/02/18 04:00:15;;;;;;;27.77;11.18;;;;;;;;;;10564760;27;20035;-75
2024/02/18 04:05:17;;;;;;;29.95;11.25;;;;;;;;;;10566535;27;20044;-74
2024/02/18 04:10:20;;;;;;;29.98;11.45;;;;;;;;;;10562775;27;20381;-74
2024/02/18 04:15:24;;;;;;;37.22;11.60;;;;;;;;;;10572226;27;20070;-74
2024/02/18 04:20:27;;;;;;;34.10;11.73;;;;;;;;;;10567863;27;20042;-77
2024/02/18 04:25:30;;;;;;;33.70;13.27;;;;;;;;;;10563603;27;20448;-74
2024/02/18 04:30:34;;;;;;;33.25;12.63;;;;;;;;;;10562562;27;20048;-74
2024/02/18 04:35:36;;;;;;;35.33;12.20;;;;;;;;;;10537753;27;20609;-76
2024/02/18 04:40:39;;;;;;;34.47;12.35;;;;;;;;;;10570247;27;20546;-75
2024/02/18 04:45:45;;;;;;;32.15;12.30;;;;;;;;;;10561394;27;20078;-74
2024/02/18 04:50:48;;;;;;;32.40;12.90;;;;;;;;;;10561404;27;20060;-75
2024/02/18 04:55:51;;;;;;;29.55;11.23;;;;;;;;;;10555818;28;20131;-75
2024/02/18 05:00:55;;;;;;;32.70;12.57;;;;;;;;;;10557164;27;20069;-75
2024/02/18 05:05:57;;;;;;;;;;;;;;;;;;10559767;27;20076;-74
2024/02/18 05:11:00;;;;;;;32.78;12.38;;;;;;;;;;10562230;27;20312;-76
2024/02/18 05:16:04;;;;;;;35.20;12.60;;;;;;;;;;10561018;27;20043;-75
2024/02/18 05:21:08;;;;;;;31.88;11.57;;;;;;;;;;10570597;27;20072;-76
2024/02/18 05:26:11;;;;;;;29.65;11.77;;;;;;;;;;10565790;27;20104;-75
2024/02/18 05:31:22;;;;;;;30.02;12.15;;;;;;;;;;10568342;27;20047;-74
2024/02/18 05:36:25;;;;;;;30.45;12.27;;;;;;;;;;10564494;28;20032;-75
2024/02/18 05:41:28;;;;;;;28.02;10.68;;;;;;;;;;10562217;27;20046;-76
2024/02/18 05:46:31;;;;;;;27.63;9.95;;;;;;;;;;10560682;27;20497;-75
2024/02/18 05:51:34;;;;;;;26.33;10.30;;;;;;;;;;10559624;27;20063;-76
2024/02/18 05:56:37;;;;;;;29.50;10.50;;;;;;;;;;10566949;28;20072;-75
2024/02/18 06:01:41;;;;;;;33.10;10.88;;;;;;;;;;10564587;28;20039;-75
2024/02/18 06:06:44;;;;;;;27.67;10.40;;;;;;;;;;10564055;27;20040;-77
2024/02/18 06:11:48;;;;;;;30.20;10.85;;;;;;;;;;10582863;27;20054;-75
2024/02/18 06:16:52;;;;;;;29.00;10.60;;;;;;;;;;10576513;27;20063;-75
2024/02/18 06:21:55;;;;;;;;;;;;;;;;;;10573411;27;20063;-74
2024/02/18 06:26:58;;;;;;;32.05;10.00;;;;;;;;;;10564745;28;19961;-75
2024/02/18 06:32:02;;;;;;;26.05;9.70;;;;;;;;;;10574142;27;20039;-74
2024/02/18 06:37:04;;;;;;;27.08;8.50;;;;;;;;;;10571295;27;20063;-75
2024/02/18 06:42:08;;;;;;;21.00;7.82;;;;;;;;;;10563356;27;20122;-75
2024/02/18 06:47:12;;;;;;;22.23;8.20;;;;;;;;;;10549312;27;20450;-76
2024/02/18 06:52:14;;;;;;;20.85;8.02;;;;;;;;;;10574406;27;20051;-75
2024/02/18 06:57:17;;;;;;;19.90;7.80;;;;;;;;;;10565985;27;20132;-75
2024/02/18 07:02:21;;;;;;;17.90;7.00;;;;;;;;;;10565764;27;20120;-75
2024/02/18 07:07:24;;;;;;;19.63;7.72;;;;;;;;;;10584047;27;20044;-75
2024/02/18 07:12:29;;;;;;;18.33;7.35;;;;;;;;;;10571059;27;20039;-76
2024/02/18 07:17:32;;;;;;;18.13;7.53;;;;;;;;;;10567446;27;20462;-76
2024/02/18 07:22:35;;;;;;;;;;;;;;;;;;10564535;28;20035;-75
2024/02/18 07:27:38;;;;;;;22.42;8.60;;;;;;;;;;10572370;27;20015;-74
2024/02/18 07:32:42;;;;;;;17.17;8.20;;;;;;;;;;10560306;28;20089;-75
2024/02/18 07:37:46;;;;;;;21.38;10.18;;;;;;;;;;10562123;27;20050;-74
2024/02/18 07:42:48;;;;;;;21.83;11.23;;;;;;;;;;10575568;27;20052;-75
2024/02/18 07:47:52;;;;;;;21.83;11.65;;;;;;;;;;10560789;27;20039;-75
2024/02/18 07:52:55;;;;;;;22.50;12.00;;;;;;;;;;10569133;27;20061;-76
2024/02/18 07:57:58;;;;;;;22.60;12.20;;;;;;;;;;10573528;27;20070;-75
2024/02/18 08:03:01;;;;;;;20.67;11.93;;;;;;;;;;10558254;27;20294;-76
2024/02/18 08:08:04;;;;;;;19.77;12.30;;;;;;;;;;10580287;27;20035;-74
2024/02/18 08:13:09;;;;;;;20.33;12.20;;;;;;;;;;10570350;27;20039;-75
2024/02/18 08:18:13;;;;;;;20.85;12.85;;;;;;;;;;10572253;27;20035;-76
2024/02/18 08:23:16;;;;;;;20.15;12.15;;;;;;;;;;10580227;27;20044;-76
2024/02/18 08:28:19;;;;;;;20.95;12.88;;;;;;;;;;10556828;27;20046;-76
2024/02/18 08:33:23;;;;;;;20.38;13.02;;;;;;;;;;10575923;27;20173;-76
2024/02/18 08:38:29;;;;;;;18.88;13.25;;;;;;;;;;10566436;27;20157;-76
2024/02/18 08:43:33;;;;;;;20.63;13.77;;;;;;;;;;10567321;27;20063;-77
2024/02/18 08:48:38;;;;;;;20.33;13.38;;;;;;;;;;10563632;27;20048;-76
2024/02/18 08:53:41;;;;;;;21.02;12.77;;;;;;;;;;10552674;28;20441;-77
2024/02/18 08:58:44;;;;;;;16.23;11.75;;;;;;;;;;10566270;27;20044;-78
2024/02/18 09:03:48;;;;;;;15.82;11.27;;;;;;;;;;10562158;27;20119;-75
2024/02/18 09:08:51;;;;;;;14.73;10.82;;;;;;;;;;10561251;27;20036;-75
2024/02/18 09:13:54;;;;;;;14.35;10.63;;;;;;;;;;10561937;28;20397;-76
2024/02/18 09:18:58;;;;;;;15.35;10.50;;;;;;;;;;10570302;28;20566;-77
2024/02/18 09:24:00;;;;;;;13.80;10.27;;;;;;;;;;10576534;27;20042;-76
2024/02/18 09:29:03;;;;;;;13.43;10.23;;;;;;;;;;10572997;27;20047;-77
2024/02/18 09:34:07;;;;;;;13.48;9.85;;;;;;;;;;10563355;27;20040;-76
2024/02/18 09:39:11;;;;;;;14.43;9.82;;;;;;;;;;10549674;28;20082;-76
2024/02/18 09:44:14;;;;;;;13.65;9.63;;;;;;;;;;10556213;28;20226;-76
2024/02/18 09:49:19;;;;;;;12.75;9.55;;;;;;;;;;10564068;27;20050;-76
2024/02/18 09:54:22;;;;;;;12.82;9.65;;;;;;;;;;10555666;28;20404;-74
2024/02/18 09:59:25;;;;;;;11.32;8.30;;;;;;;;;;10542282;28;20028;-76
2024/02/18 10:04:30;;;;;;;12.80;7.13;;;;;;;;;;10548533;28;20143;-75
2024/02/18 10:09:32;;;;;;;10.23;6.65;;;;;;;;;;10559477;28;20055;-75
2024/02/18 10:14:36;;;;;;;11.23;5.72;;;;;;;;;;10561857;28;20048;-74
2024/02/18 10:19:40;;;;;;;9.57;4.57;;;;;;;;;;10560118;28;20393;-74
2024/02/18 10:24:43;;;;;;;10.63;6.43;;;;;;;;;;10558289;28;20457;-75
2024/02/18 10:29:46;;;;;;;12.30;5.53;;;;;;;;;;10542800;28;20077;-74
2024/02/18 10:34:50;;;;;;;9.80;5.32;;;;;;;;;;10564653;28;20108;-75
2024/02/18 10:39:54;;;;;;;9.45;4.82;;;;;;;;;;10564129;28;20046;-76
2024/02/18 10:44:58;;;;;;;8.32;5.00;;;;;;;;;;10575099;28;20052;-75
2024/02/18 10:50:06;;;;;;;7.75;4.45;;;;;;;;;;10561208;28;20482;-76
2024/02/18 10:55:11;;;;;;;8.40;4.65;;;;;;;;;;10570285;28;20119;-75
2024/02/18 11:00:17;;;;;;;8.65;4.63;;;;;;;;;;10573181;27;20511;-76
2024/02/18 11:05:21;;;;;;;7.78;5.00;;;;;;;;;;10573721;27;20063;-75
2024/02/18 11:10:25;;;;;;;6.88;3.90;;;;;;;;;;10565780;27;20060;-76
2024/02/18 11:15:28;;;;;;;5.75;3.97;;;;;;;;;;10561795;27;20071;-76
2024/02/18 11:20:32;;;;;;;7.95;5.13;;;;;;;;;;10563245;27;20050;-76
2024/02/18 11:25:36;;;;;;;7.20;4.72;;;;;;;;;;10570146;27;20500;-76
2024/02/18 11:30:39;;;;;;;7.82;4.65;;;;;;;;;;10571522;27;20043;-76
2024/02/18 11:35:43;;;;;;;6.28;4.57;;;;;;;;;;10546097;28;20059;-76
2024/02/18 11:40:45;;;;;;;8.00;4.68;;;;;;;;;;10551773;27;20470;-77
2024/02/18 11:45:49;;;;;;;6.53;4.07;;;;;;;;;;10567004;27;20043;-77
2024/02/18 11:50:53;;;;;;;8.05;4.68;;;;;;;;;;10559811;27;20047;-74
2024/02/18 11:55:56;;;;;;;7.50;4.90;;;;;;;;;;10559522;27;20134;-75
2024/02/18 12:01:01;;;;;;;7.72;5.35;;;;;;;;;;10562824;27;20519;-76
2024/02/18 12:06:06;;;;;;;5.70;3.47;;;;;;;;;;10563526;27;20130;-75
2024/02/18 12:11:09;;;;;;;7.75;4.53;;;;;;;;;;10570124;27;20036;-77
2024/02/18 12:16:12;;;;;;;3.08;2.50;;;;;;;;;;10568401;27;20047;-76
2024/02/18 12:21:17;;;;;;;6.75;4.25;;;;;;;;;;10564079;27;20545;-76
2024/02/18 12:26:20;;;;;;;6.45;4.10;;;;;;;;;;10566567;27;20043;-77
2024/02/18 12:31:23;;;;;;;5.63;3.88;;;;;;;;;;10560806;28;20063;-76
2024/02/18 12:36:28;;;;;;;5.95;3.30;;;;;;;;;;10561328;28;20040;-76
2024/02/18 12:41:30;;;;;;;6.60;3.60;;;;;;;;;;10568088;27;20051;-76
2024/02/18 12:46:34;;;;;;;6.28;3.45;;;;;;;;;;10557712;27;20043;-76
2024/02/18 12:51:42;;;;;;;5.50;3.08;;;;;;;;;;10569523;27;20365;-76
2024/02/18 12:56:45;;;;;;;4.85;3.30;;;;;;;;;;10564903;27;20052;-77
2024/02/18 13:01:48;;;;;;;5.20;3.42;;;;;;;;;;10558431;27;20048;-76
2024/02/18 13:06:59;;;;;;;4.57;3.10;;;;;;;;;;10560766;27;20044;-76
2024/02/18 13:12:02;;;;;;;4.78;2.88;;;;;;;;;;10557432;27;20044;-76
2024/02/18 13:17:04;;;;;;;5.22;3.30;;;;;;;;;;10564960;27;20381;-76
2024/02/18 13:22:09;;;;;;;4.35;2.47;;;;;;;;;;10543055;27;20154;-75
2024/02/18 13:27:12;;;;;;;3.80;2.42;;;;;;;;;;10556607;27;20120;-75
2024/02/18 13:32:14;;;;;;;4.05;2.08;;;;;;;;;;10574592;27;20472;-76
2024/02/18 13:37:19;;;;;;;4.30;2.10;;;;;;;;;;10567108;27;20096;-75
2024/02/18 13:42:22;;;;;;;6.28;2.15;;;;;;;;;;10561122;27;20085;-76
2024/02/18 13:47:24;;;;;;;;;;;;;;;;;;10563476;27;20442;-75
2024/02/18 13:52:29;;;;;;;5.87;1.93;;;;;;;;;;10542404;27;19923;-75
2024/02/18 13:57:31;;;;;;;3.95;2.00;;;;;;;;;;10577815;28;20052;-75
2024/02/18 14:02:34;;;;;;;4.22;1.83;;;;;;;;;;10560704;28;20046;-77
2024/02/18 14:07:40;;;;;;;5.25;1.83;;;;;;;;;;10556160;28;20082;-75
2024/02/18 14:12:44;;;;;;;3.00;1.98;;;;;;;;;;10537909;28;20514;-74
2024/02/18 14:17:47;;;;;;;;;;;;;;;;;;10540644;28;20493;-75
2024/02/18 14:22:51;;;;;;;2.67;1.92;;;;;;;;;;10571529;28;19919;-75
2024/02/18 14:27:54;;;;;;;4.68;2.85;;;;;;;;;;10570967;27;20100;-75
2024/02/18 14:32:56;;;;;;;2.88;1.80;;;;;;;;;;10568823;27;20032;-75
2024/02/18 14:38:01;;;;;;;3.60;2.22;;;;;;;;;;10574837;27;20075;-77
2024/02/18 14:43:04;;;;;;;3.03;1.80;;;;;;;;;;10571533;27;20115;-75
2024/02/18 14:48:07;;;;;;;3.58;1.83;;;;;;;;;;10570395;27;20047;-74
2024/02/18 14:53:11;;;;;;;2.35;1.60;;;;;;;;;;10574467;27;20554;-75
2024/02/18 14:58:14;;;;;;;3.67;1.98;;;;;;;;;;10568142;27;20525;-75
2024/02/18 15:03:17;;;;;;;5.50;1.90;;;;;;;;;;10565846;28;20063;-77
2024/02/18 15:08:21;;;;;;;3.13;1.70;;;;;;;;;;10565776;27;20091;-74
2024/02/18 15:13:24;;;;;;;4.47;1.70;;;;;;;;;;10577033;27;20094;-75
2024/02/18 15:18:27;;;;;;;;;;;;;;;;;;10572310;27;20039;-76
2024/02/18 15:23:33;;;;;;;3.75;1.70;;;;;;;;;;10562734;27;19919;-74
2024/02/18 15:28:35;;;;;;;3.83;1.80;;;;;;;;;;10576876;27;20031;-75
2024/02/18 15:33:40;;;;;;;3.78;1.67;;;;;;;;;;10566356;27;20035;-75
2024/02/18 15:38:46;;;;;;;4.63;1.77;;;;;;;;;;10566378;27;20050;-74
2024/02/18 15:43:49;;;;;;;3.60;1.85;;;;;;;;;;10574037;27;20051;-75
2024/02/18 15:48:52;;;;;;;3.93;2.10;;;;;;;;;;10566991;27;20052;-75
2024/02/18 15:53:57;;;;;;;4.47;1.70;;;;;;;;;;10572097;27;20051;-75
2024/02/18 15:58:59;;;;;;;3.55;1.85;;;;;;;;;;10571350;27;20134;-75
2024/02/18 16:04:03;;;;;;;3.03;1.90;;;;;;;;;;10557601;27;20072;-74
2024/02/18 16:09:07;;;;;;;4.00;2.17;;;;;;;;;;10567229;27;20079;-75
2024/02/18 16:14:10;;;;;;;4.43;2.08;;;;;;;;;;10568251;27;20573;-75
2024/02/18 16:19:13;;;;;;;5.45;2.47;;;;;;;;;;10560164;27;20476;-75
2024/02/18 16:24:17;;;;;;;4.28;2.20;;;;;;;;;;10566729;27;20169;-74
2024/02/18 16:29:19;;;;;;;3.25;1.90;;;;;;;;;;10552938;27;20170;-77
2024/02/18 16:34:22;;;;;;;5.18;2.53;;;;;;;;;;10562745;27;20134;-75
2024/02/18 16:39:26;;;;;;;4.22;2.15;;;;;;;;;;10566724;27;20051;-75
2024/02/18 16:44:29;;;;;;;4.20;2.03;;;;;;;;;;10564347;27;20039;-74
2024/02/18 16:49:32;;;;;;;5.18;2.20;;;;;;;;;;10571206;27;20048;-76
2024/02/18 16:54:39;;;;;;;5.45;2.35;;;;;;;;;;10565305;27;20042;-74
2024/02/18 16:59:42;;;;;;;5.55;2.85;;;;;;;;;;10572391;27;20036;-74
2024/02/18 17:04:45;;;;;;;10.73;2.63;;;;;;;;;;10573793;27;20066;-74
2024/02/18 17:09:49;;;;;;;6.85;2.53;;;;;;;;;;10551453;28;20040;-74
2024/02/18 17:14:52;;;;;;;6.18;2.78;;;;;;;;;;10570294;27;20118;-76
2024/02/18 17:19:55;;;;;;;6.20;2.63;;;;;;;;;;10574699;27;20118;-75
2024/02/18 17:24:59;;;;;;;6.13;2.83;;;;;;;;;;10566539;27;20047;-75
2024/02/18 17:30:03;;;;;;;6.70;2.90;;;;;;;;;;10571622;27;20048;-76
2024/02/18 17:35:07;;;;;;;6.63;2.22;;;;;;;;;;10564586;27;20050;-75
2024/02/18 17:40:12;;;;;;;9.50;2.70;;;;;;;;;;10571201;27;20048;-76
2024/02/18 17:45:16;;;;;;;4.82;2.60;;;;;;;;;;10566219;27;20055;-76
2024/02/18 17:50:20;;;;;;;5.63;2.22;;;;;;;;;;10569259;27;20046;-74
2024/02/18 17:55:26;;;;;;;8.60;3.47;;;;;;;;;;10563696;28;20047;-75
2024/02/18 18:00:29;;;;;;;7.10;3.25;;;;;;;;;;10563554;28;20048;-74
2024/02/18 18:05:33;;;;;;;6.50;3.47;;;;;;;;;;10550584;28;20405;-76
2024/02/18 18:10:37;;;;;;;7.72;3.55;;;;;;;;;;10574775;27;20400;-77
2024/02/18 18:15:39;;;;;;;8.60;3.97;;;;;;;;;;10571254;27;20066;-75
2024/02/18 18:20:42;;;;;;;10.95;4.65;;;;;;;;;;10577410;27;20109;-77
2024/02/18 18:25:46;;;;;;;11.20;4.90;;;;;;;;;;10571181;27;20043;-76
2024/02/18 18:30:49;;;;;;;10.48;4.65;;;;;;;;;;10574205;27;20089;-76
2024/02/18 18:35:52;;;;;;;8.23;3.80;;;;;;;;;;10554095;27;20065;-77
2024/02/18 18:40:59;;;;;;;6.25;2.40;;;;;;;;;;10574009;27;20586;-76
2024/02/18 18:46:02;;;;;;;12.52;5.50;;;;;;;;;;10570323;27;20039;-74
2024/02/18 18:51:05;;;;;;;11.87;3.70;;;;;;;;;;10559677;27;20071;-76
2024/02/18 18:56:10;;;;;;;12.82;5.50;;;;;;;;;;10578714;27;20454;-75
2024/02/18 19:01:15;;;;;;;9.68;4.93;;;;;;;;;;10577866;27;20418;-77
2024/02/18 19:06:18;;;;;;;9.90;4.15;;;;;;;;;;10575269;27;20071;-74
2024/02/18 19:11:23;;;;;;;7.67;3.33;;;;;;;;;;10566148;27;20100;-75
2024/02/18 19:16:32;;;;;;;8.60;3.78;;;;;;;;;;10567364;27;20436;-75
2024/02/18 19:21:38;;;;;;;10.98;5.45;;;;;;;;;;10567713;27;20074;-75
2024/02/18 19:26:43;;;;;;;12.18;6.05;;;;;;;;;;10573155;27;20051;-74
2024/02/18 19:31:46;;;;;;;12.60;6.05;;;;;;;;;;10564591;27;20132;-76
2024/02/18 19:36:50;;;;;;;9.63;3.83;;;;;;;;;;10567695;28;20445;-75
2024/02/18 19:41:55;;;;;;;8.45;3.92;;;;;;;;;;10571327;27;20096;-75
2024/02/18 19:46:58;;;;;;;8.98;3.30;;;;;;;;;;10567261;27;20118;-75
2024/02/18 19:52:02;;;;;;;8.57;3.53;;;;;;;;;;10568959;27;20090;-75
2024/02/18 19:57:06;;;;;;;13.40;5.75;;;;;;;;;;10559387;28;20071;-76
2024/02/18 20:02:09;;;;;;;15.82;6.55;;;;;;;;;;10561686;28;20035;-76
2024/02/18 20:07:12;;;;;;;12.02;5.50;;;;;;;;;;10573620;27;20131;-75
2024/02/18 20:12:17;;;;;;;13.80;6.13;;;;;;;;;;10571574;27;20044;-75
2024/02/18 20:17:20;;;;;;;9.65;4.43;;;;;;;;;;10572961;27;20044;-75
2024/02/18 20:22:23;;;;;;;17.33;7.07;;;;;;;;;;10550243;27;20043;-74
2024/02/18 20:27:28;;;;;;;11.70;5.60;;;;;;;;;;10566339;27;20100;-75
2024/02/18 20:32:31;;;;;;;10.20;4.13;;;;;;;;;;10563996;27;20098;-76
2024/02/18 20:37:34;;;;;;;16.95;6.47;;;;;;;;;;10568693;27;20042;-75
2024/02/18 20:42:38;;;;;;;16.58;6.63;;;;;;;;;;10563446;27;20040;-76
2024/02/18 20:47:41;;;;;;;;;;;;;;;;;;10562088;27;20064;-74
2024/02/18 20:52:44;;;;;;;18.85;6.15;;;;;;;;;;10557456;27;19970;-75
2024/02/18 20:57:48;;;;;;;16.65;7.30;;;;;;;;;;10569388;27;20063;-75
2024/02/18 21:02:51;;;;;;;11.63;5.65;;;;;;;;;;10562428;27;20553;-75
2024/02/18 21:07:54;;;;;;;9.48;4.03;;;;;;;;;;10560012;27;20043;-75
2024/02/18 21:12:58;;;;;;;15.18;6.93;;;;;;;;;;10567320;27;20036;-75
2024/02/18 21:18:01;;;;;;;16.02;7.53;;;;;;;;;;10557684;27;20107;-75
2024/02/18 21:23:05;;;;;;;18.70;8.33;;;;;;;;;;10560890;27;20123;-75
2024/02/18 21:28:10;;;;;;;13.55;5.47;;;;;;;;;;10570863;27;20092;-75
2024/02/18 21:33:13;;;;;;;17.60;7.50;;;;;;;;;;10560467;27;20039;-74
2024/02/18 21:38:16;;;;;;;20.85;7.97;;;;;;;;;;10567428;27;20124;-75
2024/02/18 21:43:21;;;;;;;12.50;6.00;;;;;;;;;;10544238;27;20035;-75
2024/02/18 21:48:24;;;;;;;17.20;7.32;;;;;;;;;;10558306;28;20092;-75
2024/02/18 21:53:27;;;;;;;19.10;8.50;;;;;;;;;;10575158;27;20031;-76
2024/02/18 21:58:31;;;;;;;18.83;8.30;;;;;;;;;;10568543;28;20116;-76
2024/02/18 22:03:35;;;;;;;14.85;6.35;;;;;;;;;;10568972;28;20406;-76
2024/02/18 22:08:39;;;;;;;17.73;7.90;;;;;;;;;;10566332;28;20473;-75
2024/02/18 22:13:44;;;;;;;12.80;5.55;;;;;;;;;;10570450;28;20028;-75
2024/02/18 22:18:47;;;;;;;14.13;6.30;;;;;;;;;;10575248;28;20055;-74
2024/02/18 22:23:51;;;;;;;16.58;7.13;;;;;;;;;;10562311;28;20093;-75
2024/02/18 22:28:55;;;;;;;16.20;7.53;;;;;;;;;;10563245;28;20038;-76
2024/02/18 22:33:58;;;;;;;;;;;;;;;;;;10572539;28;20036;-75
2024/02/18 22:39:04;;;;;;;13.32;6.13;;;;;;;;;;10571712;28;19920;-76
2024/02/18 22:44:08;;;;;;;17.10;7.20;;;;;;;;;;10565814;28;20447;-74
2024/02/18 22:49:11;;;;;;;11.70;6.10;;;;;;;;;;10562828;28;20524;-75
2024/02/18 22:54:14;;;;;;;9.70;4.68;;;;;;;;;;10566893;27;20047;-75
2024/02/18 22:59:18;;;;;;;5.18;3.00;;;;;;;;;;10577976;27;20047;-75
2024/02/18 23:04:21;;;;;;;8.98;3.38;;;;;;;;;;10567005;27;20461;-76
2024/02/18 23:09:24;;;;;;;5.43;2.67;;;;;;;;;;10572106;27;20120;-75
2024/02/18 23:14:29;;;;;;;6.03;3.05;;;;;;;;;;10568732;27;20374;-76
2024/02/18 23:19:31;;;;;;;;;;;;;;;;;;10577042;27;20118;-75
2024/02/18 23:24:34;;;;;;;4.30;1.90;;;;;;;;;;10563928;27;19920;-75
2024/02/18 23:29:38;;;;;;;7.30;3.30;;;;;;;;;;10556198;27;20232;-74
2024/02/18 23:34:41;;;;;;;7.28;3.00;;;;;;;;;;10566300;27;20375;-76
2024/02/18 23:39:44;;;;;;;7.47;3.33;;;;;;;;;;10571347;27;20066;-75
2024/02/18 23:44:48;;;;;;;6.43;3.08;;;;;;;;;;10556121;28;20074;-75
2024/02/18 23:49:51;;;;;;;5.90;3.30;;;;;;;;;;10572267;27;20071;-76
2024/02/18 23:54:54;;;;;;;4.60;2.40;;;;;;;;;;10573995;27;20039;-76
2024/02/18 23:59:58;;;;;;;5.00;2.35;;;;;;;;;;10566786;27;20054;-75
